METAR

METAR RPLL (MNL) – NINOY AQUINO INTERNATIONAL AIRPORT (MANILA INTERNATIONAL AIRPORT)
RPLL 292000Z 36004KT 6000 SCT023 BKN100 26/24 Q1010 NOSIG RMK A2983
RPLL 291900Z 13003KT 090V160 6000 SCT023 BKN100 26/25 Q1010 NOSIG RMK A2983
RPLL 291800Z 04003KT 6000 FEW025 BKN100 27/25 Q1010 NOSIG RMK A2983
RPLL 291700Z VRB01KT 7000 FEW025 SCT100 27/24 Q1010 NOSIG RMK A2983
RPLL 291600Z 04003KT 350V100 7000 FEW025 BKN100 27/24 Q1010 NOSIG RMK A2983
RPLL 291400Z VRB02KT 8000 FEW023CB FEW025 BKN100 27/25 Q1011 NOSIG RMK A2985 CB SW
RPLL 291300Z 11003KT 7000 FEW023CB FEW025 BKN100 28/25 Q1010 NOSIG RMK A2983 CB SW
RPLL 291200Z 00000KT 6000 SCT023 BKN100 28/25 Q1009 NOSIG RMK A2980
RPLL 291100Z 08002KT 6000 -RA SCT023 OVC100 28/25 Q1009 NOSIG RMK A2980
RPLL 291000Z 10003KT 9000 SCT023 OVC100 29/25 Q1008 NOSIG RMK A2977
RPLL 290900Z 21003KT 180V240 9000 FEW023CB SCT025 BKN100 29/25 Q1008 NOSIG RMK A2977 CB SE-S
RPLL 290800Z VRB02KT 9000 SCT023 OVC100 29/25 Q1007 NOSIG RMK A2974
RPLL 290600Z 03004KT 34V080 9000 -SHRA FEW02CB SCT023 OVC090 29/15 Q1007 RETS NOIG RMK A2974 CB NE -E
RPLL 290500Z 35006KT 280V040 9000 TS SCT022CB BKN100 31/24 Q1008 NOSIG RMK A2977 CB N-E OHD
RPLL 290400Z 33006KT 270V020 9000 TS FEW022CB SCT023 BKN100 30/24 Q1008 NOSIG RMK A2977 CB N-NE
RPLL 290300Z 30005KT 230V010 9999 FEW023CB SCT025 BKN100 31/24 Q1009 NOSIG RMK A2980 CB N SW
RPLL 290200Z 30004KT 260V010 9000 SCT025 BKN100 29/24 Q1010 NOSIG RMK A2983
RPLL 290100Z VRB02KT 9000 SCT025 BKN100 29/25 Q1010 NOSIG RMK A2983
RPLL 290000Z VRB02KT 9000 FEW023 SCT100 29/25 Q1010 NOSIG RMK A2983
RPLL 282300Z 00000KT 8000 SCT023 BKN100 26/25 Q1009 NOSIG RMK A2980
RPLL 282200Z VRB01KT 8000 SCT023 BKN100 26/25 Q1009 NOSIG RMK A2980
RPLL 282100Z 00000KT 9000 SCT023 BKN100 26/24 Q1008 NOSIG RMK A2977
RPLL 282000Z VRB01KT 9000 BKN023 OVC100 25/24 Q1007 NOSIG RMK A2974
RPLL 281900Z 12004KT 8000 -RA BKN022 OVC080 26/25 Q1008 NOSIG RMK A2977
RPLL 281800Z 19008KT 7000 -RA BKN022 OVC080 26/25 Q1008 NOSIG RMK A2977
RPLL 281600Z 13002KT 8000 BKN023 OVC100 26/25 Q1008 NOSIG RMK A2977
RPLL 281500Z 08002KT 8000 SCT023 BKN100 26/25 Q1009 NOSIG RMK A2980
RPLL 281400Z 09003KT 060V120 9000 SCT023 BKN100 26/25 Q1010 NOSIG RMK A2983
RPLL 281300Z 11003KT 080V150 9000 -RA SCT023 OVC090 26/25 Q1009 NOSIG RMK A2980
RPLL 281200Z 07006KT 8000 -RA SCT023 OVC090 26/24 Q1008 RETS NOSIG RM KA2977
RPLL 281100Z 01006KT 330V040 7000 -TSRA SCT022CB OVC080 26/24 Q1008 RESHRA NOSIG RMK A2977 CB OHD N-S
RPLL 281000Z VRB06KT 9000 TS VCSH FEW022CB SCT023 BKN090 29/25 Q1007 TEMPO 7000 -TSRA RMK A2974 CB OHD E-SE VCSH E-SE
RPLL 280900Z 26012KT 9999 FEW023CB SCT025 30/25 Q1006 NOSIG RMK A2971 CB E
RPLL 280800Z 26014KT 9999 FEW023CB SCT025 BKN100 30/25 Q1005 NOSIG RMK A2968 CB NE SW-S
RPLL 280700Z 25015KT 9999 SCT025 BKN100 30/25 Q1005 NOSIG RMK A2968
RPLL 280600Z 25012KT 9999 FEW025 33/24 Q1005 NOSIG RMK A2968
RPLL 280500Z 21003KT 140V300 9999 FEW025 33/23 Q1006 NOSIG RMK A2971

RPVM (CEB) – MACTAN-CEBU INTERNATIONAL AIRPORT
RPVM 292000Z 32003KT 9999 FEW018CB BKN100 25/24 Q1011 RMK A2985
RPVM 291900Z 30002KT 9999 FEW020 BKN100 25/24 Q1010 RMK A2983
RPVM 291800Z 24003KT 9999 FEW018CB BKN100 25/24 Q1010 RESHRA RMK A2983 CB/OCNL LTG SW
RPVM 291700Z 28003KT 8000 -SHRA FEW018CB OVC090 25/24 Q1010 RETS RMK A2983 CB/OCNL LTG SW
RPVM 291600Z VRB03KT 8000 -TSRA SCT018CB OVC090 26/24 Q1011 RMK A2985 CB ALQDS u0000u0000u0000u0000u0000u0000u0000
RPVM 291400Z 30003KT 9999 FEW018CB BKN100 27/24 Q1012 RMK A2988 CB NE/SE
RPVM 291300Z 32005KT 9999 FEW018CB SCT100 27/24 Q1011 RMK A2985 CB/OCNL LTG NW/SE
RPVM 291200Z 36003KT 9999 FEW018CB BKN100 27/24 Q1011 RETS RMK A2985 CB/OCNL LTG N-NE
RPVM 291100Z 35006KT 330V030 9999 FEW018CB BKN100 29/25 Q1010 RMK A2983 CB/OCNL LTG N-NE/SW
RPVM 291000Z 06003KT 030V110 9999 TS FEW018CB OVC100 29/25 Q1010 RMK A2983 CB NE SW W/ OCNL LTG TS
RPVM 290900Z 06004KT 030V120 9999 FEW018CB BKN100 30/25 Q1009 RMK A2980 CB NE S SW
RPVM 290800Z 05005KT 9999 FEW018CB BKN100 30/25 Q1009 RMK A2980 CB S SW-W
RPVM 290600Z 05010KT 9999 TS SCT018CB BKN100 31/25 Q1008 RMK A2977 CB ALQS W/ OVNL TS
RPVM 290500Z 07010KT 9999 TS SCT018CB SCT300 30/25 Q1008 RMK A2977 CB ALQDS W/ OCNL TS
RPVM 290400Z 06010KT 9999 FEW018 SCT300 30/25 Q1009 RMK A2980 CB N SSE S W
RPVM 290300Z 07008KT 9999 FEW020 SCT100 SCT300 30/25 Q1010 RMK A2983
RPVM 290200Z 06007KT 9999 FEW020 SCT100 SCT300 30/26 Q1010 RMK A2983
RPVM 290100Z 04005KT 9999 FEW020 SCT100 30/24 0Q1011 RMK A2985
RPVM 290000Z 03004KT 9999 FEW020 SCT100 SCT300 28/24 Q1011 RMK A2985
RPVM 282300Z 35003KT 9999 FEW020 BKN250 26/24 Q1010 RMK A2983
RPVM 282200Z 32003KT 9999 FEW020 SCT100 25/24 Q1009 RMK A2980
RPVM 282100Z 34004KT 9999 FEW020 SCT100 25/24 Q1009 RMK A2980
RPVM 282000Z VRB01KT 9999 FEW020 SCT100 26/24 Q1009 RMK A2980
RPVM 281900Z 30004KT 9999 FEW018CB SCT100 26/24 Q1009 RMK A2980 CB E
RPVM 281800Z 28002KT 9999 FEW018CB BKN100 25/24 Q1009 RMK A2980 CB E SE S
RPVM 281600Z VRB02KT 9999 FEW018CB BKN100 26/24 Q1010 RMK A2983 OCNL LTG NE
RPVM 281500Z 24002KT 9999 FEW018CB SCT300 26/24 Q1010 RMK A2983 CB NE S W/ OCNL LTG
RPVM 281400Z 09004KT 9999 FEW018CB SCT30 26/24 Q1010 RMK A2983 OCNL LTG SW
RPVM 281300Z 32005KT 9999 FEW018CB BKN300 26/24 Q1010 RMK A2983 OCNL LTG SW
RPVM 281200Z 00000KT 9999 FEW020 BKN250 26/24 Q1010 RMK A2983
RPVM 281100Z VRB01KT 9999 FEW020 OVC100 26/24 Q1009 RMK A2980
RPVM 281000Z 36002KT 9999 FEW018CB OVC100 27/24 Q1009 RMK A2980 CB ESE
RPVM 280900Z 05003KT 9999 FEW018CB OVC100 28/25 Q1008 RMK A2977 CB E
RPVM 280800Z 32005KT 290V350 8000 SHRA FEW018CB BKN020 OVC090 28/25 Q1007 RMK A2974 CB E N
RPVM 280700Z VRB02KT 9000 -SHRA FEW018CB BKN100 28/24 Q1007 RMK A2974 CB W N
RPVM 280600Z 27007KT 240V300 9000 -TSRA SCT018CB OVC090 27/24 Q1007 RMK A2974 CB OHD/SE
RPVM 280500Z 20007KT 140V250 9999 TS SCT018CB OVC100 31/24 Q1008 RMK A2977 CB OH

RPLC (CRK) – CLARK INTERNATIONAL AIRPORT
RPLC 292000Z 29004KT 9000 FEW020 SCT300 26/23 Q1011 NOSIG RMK A2985
RPLC 291900Z 27004KT 8000 FEW020 SCT300 26/23 Q1011 NOSIG RMK A2985
RPLC 291800Z 27002KT 8000 FEW020 BKN300 26/23 Q1011 NOSIG RMK A2985
RPLC 291700Z 25002KT 8000 FEW020 BKN300 26/24 Q1012 NOSIG RMK A2988
RPLC 291600Z 30003KT 8000 SCT020 BKN300 27/24 Q1012 NOSIG RMK A2988
RPLC 291400Z 34002KT 8000 FEW020 BKN300 26/24 Q1012 NOSIG RMK A2988
RPLC 291300Z 25002KT 8000 SCT020 BKN300 28/24 Q1012 NOSIG RMK A2988
RPLC 291200Z 32002KT 8000 FEW020 SCT100 BKN300 28/25 Q1011 NOSIG RMK A2985
RPLC 291100Z 29002KT 7000 SCT020 BKN100 27/25 Q1010 NOSIG RMK A2983
RPLC 291000Z 25002KT 7000 SCT020 BKN100 27/21 Q1009 NOSIG RMK A2980
RPLC 290900Z 27004KT 7000 SCT020 BKN100 27/24 Q1009 RETS RMK A2980
RPLC 290800Z 26004KT 5000 TS FEW015CB SCT020 OVC100 25/23 Q1008 RERA RMK A2977 CB N Q W/ TS
RPLC 290500Z 25002KT 7000 SCT020 BKN100 31/25 Q1009 RERA RMK A2980
RPLC 290400Z 19002KT 6000 -RA SCT020 OVC100 30/25 Q1010 RMK A2983
RPLC 290300Z 35002KT 6000 -RA SCT020 OVC100 30/25 Q1011 RMK A2985 u0000
RPLC 290200Z 08002KT 6000 SCT020 OVC00 30/25 Q1011 NOSIG RMK A2985
RPLC 290100Z 14002KT 6999 FEW020 BKN300 31/25 Q1011 NOSIG RMK A2985
RPLC 290000Z 02002KT 6000 FEW020 BKN300 29/25 Q1011 NOSIG RMK A2985
RPLC 282300Z 34002KT 6000 FEW020 BKN300 27/24 Q1011 NOSIG RMK A2985
RPLC 282200Z 34002KT 6000 SCT020 BKN100 26/23 Q1010 NOSIG RMK A2983
RPLC 282100Z 27002KT 6000 SCT020 BKN100 25/24 Q1009 NOSIG RMK A2980
RPLC 282000Z 34002KT 6000 SCT020 BKN100 26/24 Q1009 NOSIG RMK A2980
RPLC 281900Z 34002KT 7000 SCT020 BKN100 26/24 Q1009 NOSIG RMK A2980
RPLC 281800Z 34002KT 7000 SCT020 BKN100 26/24 Q1010 NOSIG RMK A2983
RPLC 281600Z 35002KT 7000 SCT020 BKN100 27/24 Q1010 NOSIG RMK A2983
RPLC 281500Z 05002KT 7000 SCT020 BKN100 28/24 Q1010 NOSIG RMK A2983
RPLC 281400Z 36002KT 7000 SCT020 BKN10 27/25 Q1010 NOSIG RMK A2983
RPLC 281300Z 35002KT 7000 SCT020 BKN100 27/25 Q1010 RMK A2983
RPLC 281200Z 23002KT 7000 SCT020 BKN100 28/24 Q1009 NOSIG RMK A2980
RPLC 281100Z 18002KT 7000 FEW015CB SCT020 BKN100 28/26 Q1008 NOSIG RMK A2977
RPLC 281000Z 16002KT 7000 FEW020 BKN100 30/24 Q1007 NOSIG RMK A2974
RPLC 280900Z 32002KT 7000 SCT020 BKN100 31/25 Q1007 RMK A2974
RPLC 280800Z 18002KT 7000 SCT020 BKN100 32/25 Q1006 RMK A2971
RPLC 280700Z 18002KT 7000 SCT020 BKN100 31/26 Q1006 NOSIG RMK A2971- METAR RPVP 280700Z 12006KT 9999 FEW019 OVC240 30/24 Q1006 RMK A2971

RPLB (SFS) – SUBIC BAY INTERNATIONAL AIRPORT
RPLB 292000Z 10003KT 9999 FEW020 BKN300 24/23 Q1011 NOSIG RMK A2985
RPLB 291900Z 06004KT 9999 FEW018CB FEW020 BKN300 24/23 Q1011 RMK A2985 CB/OCNL LTG W
RPLB 291800Z 10003KT 9999 FEW018CB FEW020 BKN300 25/24 Q1011 RMK A2985 CB/OCNL LTG W
RPLB 291700Z 09002KT 9999 FEW017CB FEW018 BKN080 25/21 Q1011 RETSRA RMK A2985 CB/OCNL LTG S
RPLB 291600Z 07004KT 9000 -TSRA FEW017CB SCT018 OVC070 25/23 Q1012 RMK A2988 CB OHD
RPLB 291400Z 07006KT 9999 FEW018CB FEW020 BKN300 26/24 Q1011 RMK A2985 CB/OCNL LTG W
RPLB 291300Z 06004KT 030V090 9999 FEW018CB FEW020 BKN300 26/24 Q1011 NOSIG RMK A2985 CB/OCNL LTG W
RPLB 291200Z 07003KT 9999 FEW020 BKN300 26/25 Q1011 NOSIG RMK A2985
RPLB 291100Z 06003KT 9999 FEW018 SCT080 OVC300 27/25 Q1010 RETS RMK A2983
RPLB 291000Z 15003KT 9999 FEW020 SCT080 OVC300 28/25 Q1009 NOSIG RMK A2980
RPLB 290900Z 17005KT 9999 FEW020 OVC300 28/25 Q1008 NOSIG RMK A2977
RPLB 290800Z 22004KT 9999 FEW020 BKN300 29/25 Q1008 NOSIG RMK A2977
RPLB 290600Z 19005KT 9999 FEW020 BKN300 NOSIG RMK A2977 Q1008 NOSIG RMK A2977
RPLB 290500Z 18005KT 9999 FEW020 BKN080 29/25 Q1009 NOSIG RMK A2980
RPLB 290400Z 16005KT 9999 FEW018 OVC280 28/25 Q1010 RETS RMK A2983
RPLB 290300Z 22003KT 190V260 9000 TS FEW018CB SCT020 OVC070 29/24 Q1010 NOSIG RMK A2983 VCSH W/ OCNL TS E
RPLB 290200Z 33003KT 280V010 9999 FEW018 BKN280 28/24 Q1011 NOSIG RMK A2985
RPLB 290100Z VRB02KT 9999 FEW018 BKN300 28/24 Q1011 NOSIG RMK A2985
RPLB 290000Z VRB02KT 9999 FEW018 BKN300 28/24 Q1011 NOSIG RMK A2985
RPLB 282300Z 12003KT 9999 FEW016 SCT080 BKN300 26/24 Q1010 NOSIG RMK A2983
RPLB 282200Z 00000KT 9999 FEW018 SCT080 OVC280 25/23 Q1010 NOSIG RMK A2983
RPLB 282100Z 17004KT 9999 FEW018CB SCT080 25/24 Q1009 NOSIG RMK A2980 CB/OCNL LTG W
RPLB 282000Z VRB02KT 9999 FEW018 BKN080 25/24 Q1009 NOSIG RMK A2980
RPLB 281900Z 09003KT 9999 FEW018 BKN080 25/24 Q1009 NOSIG RMK A2980
RPLB 281800Z VRB02KT 9999 FEW018 BKN080 25/24 Q1009 RESHRA RMK A2980
RPLB 281600Z 17004KT 140V200 8000 -SHRA FEW018 BKN080 27/25 Q1010 NOSIG RMK A2983
RPLB 281500Z 15003KT 9999 FEW020 27/24 Q1010 NOSIG RMK A2983
RPLB 281400Z 16003KT 9999 FEW020 27/25 Q1010 NOSIG RMK A2983
RPLB 281300Z 15004KT 9999 FEW020 BKN080 27/25 Q1010 NOSIG RMK A2983
RPLB 281200Z 15004KT 9999 FEW018CB FEW020 SCT080 27/24 Q1009 NOSIG RMK A2980 VCSH LTG N
RPLB 281100Z 19003KT 150V270 9999 FEW018 SCT080 BKN300 28/24 Q1008 NOSIG RMK A2977
RPLB 281000Z 22005KT 9999 FEW020 SCT080 BKN300 28/24 Q1007 NOSIG RMK A2974
RPLB 280900Z 20009KT 9999 FEW020 BKN300 29/24 Q1007 NOSIG RMK A2974
RPLB 280800Z 20010KT 9999 SCT020 BKN300 29/24 Q1007 NOSIG RMK A2974
RPLB 280700Z 20012KT 9999 VCSH FEW018CB FEW020 BKN300 30/25 Q1006 RMK A2971 VCSH CB NW
RPLB 280600Z 22011KT 9999 SCT018 BKN300 30/26 Q1007 NOSIG RMK A2974
RPLB 280500Z 22009KT 9999 FEW018TCU SCT020 BKN300 30/25 Q1007 RMK A2974 TCU N

RPLI (LAO) – LAOAG INTERNATIONAL AIRPORT
RPLI 291800Z 11003KT 9999 FEW018 25/25 Q1010 NOSIG RMK A2983
RPLI 291200Z 10003KT 9999 FEW017CB FEW018 SCT290 27/26 Q1010 RETS NOSIG RMK A2983 CB ESE/SSW
RPLI 291100Z 33003KT 290V010 8000 TS VCSH FEW017CB SCT018 BKN100 28/27 Q1010 RESHRA NOSIG RMK A2983 CB E/SW VCSH SW
RPLI 291000Z 33004KT 300V010 8000 -SHRA FEW017CB SCT018 BKN100 28/27 Q1009 NOSIG RMK A2980 CB E SW
RPLI 290900Z 34006KT 310V020 8000 VCSH FEW017CB SCT018 BKN100 30/26 Q1008 RETS NOSIG RMK A2977 CB E S VCSH E-S
RPLI 290800Z 32006KT 280V360 9999 TS FEW017CB FEW018 BKN100 29/26 Q1008 NOSIG RMK A2977 CB NE S
RPLI 290600Z 31006KT 270DEG350 9999 FEW017CB SCT018 30/27 Q1008 NOSIG RMK A2977 METAR RPMZ 290600Z 10007KT 060V13 9999 FEW016CB SCT300 31/24 Q1007 RMK A2974 CB NW-N W
RPLI 290500Z 29005KT 210V020 9999 FEW018 SCT290 30/27 Q1009 NOSIG RMK A2980
RPLI 290400Z 26008KT 230V300 9999 FEW018 SCT290 30/27 Q1009 NOSIG RMK A2980
RPLI 290300Z 26008KT 220V300 9999 FEW017CB SCT018 BKN290 30/26 Q1010 RETS NOSIG RMK A2983 CB SW
RPLI 290200Z 26006KT 230V290 8000 TS VCSH SCT017 BKN018 30/27 Q1010 NOSIG RMK A2983 CB S-NW
RPLI 290100Z VRB02KT 8000 TS VCSH SCT017CB BKN290 31/26 Q1010 NOSIG RMK A2983 CB SW-NW
RPLI 290000Z 13004KT 100V170 8000 TS VCSH SCT017CB BKN018 28/26 Q1010 NOSIG RMK A2983 CB SW-NW VCSH S-W
RPLI 282300Z 08003KT 8000 TS SCT017CB BKN280 26/25 Q1009 NOSIG RMK A2980 CB SW-N
RPLI 282200Z 11002KT 8000 SCT017CB BKN280 25/25 Q1009 RETS NOSIG RMK A2980 CB SW-N
RPLI 282100Z VRB02KT 9999 TS FEW017CB SCT018 26/25 Q1008 NOSIG RMK A2977 CB SW-NW METAR RPMZ 282100Z 07002KT 9999 FEW017 SCT090 23/23 Q1008 RMK A2977
RPLI 281800Z 11004KT 9999 TS FEW017CB BKN290 26/25 Q1008 NOSIG RMK A2977 CB NW
RPLI 281500Z 14004KT 9999 FEW017CB FEW018 BKN100 27/26 Q1009 NOSIG RMK A2980 CB S
RPLI 281200Z 14005KT 110V170 9999 FEW017CB FEW018 SCT100 28/26 Q1008 RETS NOSIG RMK A2977 CB SE SW
RPLI 281100Z 13005KT 9999 TS FEW017CB SCT018 BKN100 28/27 Q1007 NOSIG RMK A2974 CB SW
RPLI 281000Z 20003KT 160V260 9999 FEW017CB SCT018 BKN100 29/26 Q1006 NOSIG RMK A2971 CB E
RPLI 280900Z 21006KT 180V250 8000 VCSH SCT018 BKN280 29/26 Q1006 RETS NOSIG RMK A2971 CB NE S N VCSH NE
RPLI 280800Z 22007KT 180V260 8000 TS FEW017CB SCT018 BKN290 30/27 Q1005 NOSIG RMK A2968 CB NW
RPLI 280700Z 21008KT 180V260 9999 TS SCT018 BKN290 30/27 Q1005 NOSIG RMK A2968 CB NE-S
RPLI 280600Z 25006KT 210V280 9999 TS SCT017CB BKN290 30/27 Q1005 NOSIG RMK A2968 CB NE-S
RPLI 280500Z 25008KT 220V280 9999 FEW017CB BKN290 31/27 Q1006 NOSIG RMK A2971 CB ENE/S-SSW

RPVP (PPS) – PUERTO PRINCESA INTERNATIONAL AIRPORT
RPVP 291800Z 27008KT 9999 FEW019 26/23 Q1009 RMK A2980
RPVP 291200Z 36004KT 9999 FEW019 OVC240 27/24 Q1010 RERA RMK A2983
RPVP 291100Z 03004KT 9999 -RA FEW019 SCT080 OVC240 28/25 Q1009 RMK A2980
RPVP 291000Z 18004KT 9999 -RA FEW019 SCT080 OVC240 29/25 Q1009 RMK A2980
RPVP 290900Z 21004KT 9999 FEW019 BKN240 30/25 Q1008 RMK A2977
RPVP 290800Z 12004KT 9999 FEW019 OVC240 30/25 Q1007 RMK A2974
RPVP 290500Z 09008KT 9999 FEW019 BKN240 31/25 Q1008 RMK A2977
RPVP 290400Z 12008KT 9999 FEW019 OVC240 30/25 Q1009 RMK A2980
RPVP 290300Z 06010KT 9999 FEW019 BKN240 30/26 Q1009 RMK A2980
RPVP 290200Z 06006KT 9999 FEW019 BKN240 30/25 Q1010 RMK A2983
RPVP 290100Z 33004KT 9999 FEW019 BKN240 29/25 Q1010 RMK A2983
RPVP 290000Z 33004KT 9999 FEW018 BKN240 27/25 Q1010 RMK A2983
RPVP 282300Z 27004KT 9999 SCT019 OVC080 26/25 Q1009 RMK A2980
RPVP 282200Z 27004KT 9999 -SHRA SCT019 OVC080 26/25 Q1009 RMK A2980
RPVP 282100Z 27004KT 9999 -SHRA SCT019 OVC080 26/24 Q1008 RMK A2977
RPVP 281800Z 27004KT 9999 SCT019 OVC080 27/25 Q1008 RMK A2977
RPVP 281500Z 18004KT 9999 FEW019 BKN080 27/25 Q1010 RMK A2983
RPVP 281200Z 18004KT 9999 FEW019 BKN240 28/25 Q1009 RMK A2980
RPVP 281100Z 18004KT 9999 FEW019 BKN240 28/25 Q1008 RMK A2977
RPVP 281000Z 18004KT 9999 FEW019 SCT080 BKN240 29/24 Q1007 RMK A2974
RPVP 280800Z 18008KT 9999 FEW019 OVC240 30/25 Q1006 RMK A2971

RPVD (DGT) – SIBULAN AIRPORT (DUMAGUETE AIRPORT)
RPVD 291800Z 09004KT 9999 SCT015 BKN220 27/24 Q1010 RMK A2983
RPVD 291200Z 32004KT 9999 FEW014CB FEW015 OVC070 27/24 Q1010 RESHRA RMK A2983 CB/OCNL LTG E
RPVD 291100Z 29004KT 9999 -SHRA FEW014CB FEW015 OVC070 27/24 Q1010 RMK A2983 CB/OCNL LTG E
RPVD 291000Z 32006KT 9999 -SHRA FEW014CB FEW015 OVC070 27/24 Q1009 RMK A2980 CB N WNW
RPVD 290900Z 36004KT 9999 TS FEW014CB FEW015 OVC070 30/25 Q1008 RMK A2977 CB VCSH N/NW
RPVD 290800Z 11004KT 9999 VCSH FEW014CB FEW015 OVC070 30/25 Q1008 RMK A2977 CB VCSH N NW
RPVD 290500Z 14006KT 9999 VCSH FEW014CB FEW015 31/26 Q1007 RMK A2974 CB VCSH NNE NE/SW WSW
RPVD 290400Z 09008KT 9999 TS FEW018CB FEW015 31/26 Q1008 RMK A2977 CB NE SE
RPVD 290300Z 04006KT 9999 VCSH FEW014CB FEW015 SCT220 30/26 Q1
RPVD 290200Z 02008KT 9999 FEW015 BKN220 30/25 Q1009 RMK A2980
RPVD 290100Z 34008KT 9999 FEW015 SCT070 BKN220 29/25 Q1010 RMK A2983
RPVD 290000Z 34008KT 9999 VCSH FEW015 OVC070 28/24 Q1010 RMK A2983 VCSH ENE SE
RPVD 282300Z 34006KT 9999 VCSH FEW015 OVC070 27/24 Q1009 RMK A2980 VCSH ENE-SE
RPVD 282200Z 29004KT 9999 VCSH FEW015 OVC070 26/23 Q1008 RMK A2977 VCSH E-S
RPVD 282100Z 00000KT 9999 FEW015 OVC220 25/23 Q1008 RMK A2977
RPVD 281800Z 00000KT 9999 FEW014CB FEW015 BKN070 26/23 Q1010 RMK A2983 CB N E W/ OCNL LTG
RPVD 281500Z 27006KT 9999 FEW014CB FEW015 BKN070 26/23 Q1010 RMK A2983 CB N E W/ OCNL LTG
RPVD 281200Z 25004KT 9999 FEW015 BKN070 27/24 Q1009 RMK A2980
RPVD 280900Z 22004KT 9999 VCSH FEW015 BKN070 28/24 Q1007 RMK A2974 VCSH ENE
RPVD 280800Z 18004KT 9999 VCSH BKN070 30/25 Q1005 RMK A2968 VCSH SW-W NW CB SE
RPVD 280700Z 32004KT 9999 VCSH FEW015 SCT070 30/24 Q1006 RMK A2971 VCSH WNW NW

RPMR (GES) – GENERAL SANTOS INTERNATIONAL AIRPORT
RPMR 290900Z 19008KT 9999 VCSH FEW017CB SCT080 BKN250 31/22 Q1008 RMK A2977 CB NE/SE VCSH SE
RPMR 290800Z 13005KT 090V180 9999 FEW017CB SCT250 32/21 Q1007RMK A2974 CB NE SE
RPMR 290500Z 14011KT 9999 FEW018 33/20 Q1008 RMK A2977
RPMR 290400Z 11007KT 070V150 9999 FEW018 33/21 Q1009 RMK A2980
RPMR 290300Z 08007KT 040V110 9999 FEW018 33/22 Q1009 RMK A2980
RPMR 290200Z 06005KT 020V090 9999 FEW018 31/22 Q1010 RMK A2983
RPMR 290100Z VRB03KT 9999 FEW018 29/22 Q1011 RMK A2985
RPMR 280900Z 35005KT 8000 -SHRA SCT018 OVC080 25/23 Q1009 RMK A2980
RPMR 280800Z 02008KT 9000 VCSH FEW018CB SCT080 OVC250 27/22 Q1008 RMK A2977 CB VCSH NE NW
RPMR 280700Z 09004KT 9999 VCSH FEW018CB SCT080 OVC250 30/20 Q1008 RMK A2977 CB VCSH SE NW W

RPMD (DVO) – FRANCISCO BANGOY INTERNATIONAL AIRPORT
RPMD 292000Z 34003KT 9999 FEW016 SCT290 24/24 Q1010 RMK A2983
RPMD 291900Z 02005KT 9999 FEW016 BKN290 24/24 Q1010 RMK A2983
RPMD 291800Z 35003KT 300V070 9999 FEW016 25/25 Q1010 RMK A2983
RPMD 291600Z 01004KT 9999 FEW016 25/25 Q1011 RMK A2985
RPMD 291400Z 04005KT 9999 VCSH FEW015 BKN090 26/24 Q1012 RMK A2988 VCSH SE
RPMD 291300Z 04004KT 9999 VCSH FEW015 BKN090 26/24 Q1012 RMK A2988 VCSH SE
RPMD 291200Z 03002KT 9999 VCSH FEW015 SCT090 26/23 Q1011 RMK A2985 VCSH NE
RPMD 291100Z 03005KT 9999 SCT016 SCT090 26/23 Q1010 RMK A2983
RPMD 291000Z 01006KT 330V040 9999 VCSH FEW015CB FEW016 BKN260 27/23 Q1010 RMK A2983 VCSH WNW N CB WNW N
RPMD 290900Z 19004KT 140V250 9999 VCSH FEW015CB FEW016 BKN260 29/23 Q1009 RMK A2980 VCSH NW-NNE CB WNW NNE
RPMD 290800Z 1705KT 9999 VCSH FEW015CB FEW016 BKN260 29/23 Q1008 RMK A2977 VCSH NNE-NE CB NNE NE
RPMD 290600Z 18009KT 9999 VCSH FEW015CB FEW016 SCT290 31/24 Q1007 RMK A2974 CB ENE ESE W/ VCSH ENE
RPMD 290500Z 17008KT 130V200 9999 FEW015CB FEW016 32/24 Q1008 RMK A2977 CB E ESE
RPMD 290400Z 15006KT 110V200 9999 SCT06 31/23 Q1009 RMK A2980
RPMD 290300Z 03005KT 9999 SCT016 31/24 Q1010 RMK A2983
RPMD 290200Z 07004KT 360V130 9999 FEW016 30/24 Q1010 RMK A2983
RPMD 290100Z 05005KT 010V100 9999 SCT015 28/24 Q1011 RMK A2985
RPMD 290000Z 01003KT 320V050 9999 SCT016 SCT090 27/26 Q1011 RMK A2985
RPMD 282300Z 36003KT 330V030 9999 FEW016 BKN090 BKN260 25/25 Q1010 RMK A2983
RPMD 282200Z 34003KT 9999 VCSH SCT015 SCT090 BKN260 24/24 Q1009 RMK A2980 VCSH E SE S W
RPMD 282100Z 35003KT 9999 VCSH FEW015 SCT090 BKN260 24/24 Q1009 RMK A2980 VCSH NE SE
RPMD 282000Z 36003KT 330V030 9999 VCSH FEW015 SCT090 BKN260 24/24 Q1008 RMK A2977 VCSH NE E SE
RPMD 281900Z 30003KT 260V340 9999 VCSH SCT015 BKN090 24/24 Q1009 RMK A2980 VCSH N E S W
RPMD 281800Z VRB02KT 9999 FEW016 BKN260 24/24 Q1009 RMK A2980
RPMD 281600Z VRB02KT 8000 -RA FEW016 OVC080 24/24 Q1010 RMK A2983
RPMD 281500Z 36002KT 9999 FEW016 BKN090 OVC260 24/24 Q1011 RMK A2985
RPMD 281400Z VRB02KT 9999 FEW016 BKN090 OVC260 24/24 Q1011 RMK A2985
RPMD 281300Z VRB02KT 9000 SCT016 BKN090 OVC260 24/24 Q1021 RMK A2988
RPMD 281200Z VRB02KT 8000 -RA FEW015CB FEW016 OVC080 24/24 Q1011 RMK A2985 CB WSW W/ OCNL LTG
RPMD 281100Z VRB02KT 5000 -TSRA SCT015CB OVC080 23/23 Q1011 RMK A2985 CB S-SW W/ OCNL LTG
RPMD 281000Z 26008KT 230V290 5000 -TSRA SCT015CB OVC080 23/23 Q1010 RMK A2983 CB OHD
RPMD 280900Z VRB04G14KT 9000 -TSRA SCT015CB BKN090 OVC260 Q1009 RMK A2980 CB SSE OHD
RPMD 280800Z 15006KT 00V200 9999 VCSH FEW015CB FEW016 BKN090 BKN260 30/24 Q1007 RMK A2974 VCSH NNW-NNE CB ENE SSW W-WNW
RPMD 280700Z 18007KT 140V230 9999 VCSH FEW015CB FEW016 BKN090 BKN260 31/23 Q1007 RMK A2974 CB SW-W NW N VCSH NW N
RPMD 280600Z 21005KT 170V240 9999 VCSH FEW015CB FEW016 BKN090 BKN260 30/23 Q1007 RMK A2974 CB SW/W-NW VCSH NW
RPMD 280500Z 17006KT 120V210 9999 VCSH FEW015CB FEW016 BKN090 BKN260 30/24 Q1007 RMK A2974 CBSW/W-NW VCSH NW

RPMZ (ZAM) – ZAMBOANGA INTERNATIONAL AIRPORT
RPMZ 291800Z 04005KT 9000 -SHRA SCT016CB OVC090 26/25 Q1010 RMK A2983 CB E-SW/OHD LTG SE
RPMZ 291200Z VRB01KT 9999 FEW017 BKN300 28/25 Q1010 RMK A2983
RPMZ 291000Z 27005KT 9999 FEW017 BKN300 28/25 Q1009 RMK A2980
RPMZ 290900Z 33005KT 280V070 9999 FEW017 BKN090 30/26 Q1008 RMK A2977
RPMZ 290800Z 07006KT 030V110 9999 FEW017 BKN090 30/24 Q1007 RMK A2974
RPMZ 290500Z 10008KT 080V140 9999 FEW016CB SCT300 32/24 Q1008 RMK A2977 CB NW-N SW
RPMZ 290400Z 09011KT 060V130 9999 FEW016CB SCT090 32/25 Q1009 RMK A2980 CB W-NW
RPMZ 290300Z 10010KT 070V130 9999 FEW016CB SCT090 31/24 Q1009 RMK A2980 CB NW-N
RPMZ 290200Z 10006KT 060V180 9999 SCT017 31/25 Q1010 RMK A2983
RPMZ 290100Z 10006KT 070V140 9999 FEW017 OVC300 29/23 Q1011 RMK A2985
RPMZ 290000Z 10004KT 070V130 9999 FEW017 SCT300 28/23 Q1010 RMK A2983
RPMZ 282300Z VRB02KT 9999 FEW017 BKN300 25/23 Q1010 RMK A2983
RPMZ 282200Z VRB02KT 9999 FEW017 BKN090 23/23 Q1009 RMK A2980
RPMZ 282100Z 07002KT 9999 FEW017 SCT090 23/23 Q1008 RMK A2977
RPMZ 281800Z VRB02KT 9999 SCT015 BKN090 24/23 Q1008 RMK A2977
RPMZ 281500Z 06002KT 9999 -RA SCT016CB OVC080 25/25 Q1011 RESHRA RMK A2985 CB NE-SE OHD
RPMZ 281200Z 08006KT 9000 -SHRA SCT016CB OVC090 26/24 Q1009 RMK A2980 CB E OHD
RPMZ 281000Z 28009KT 9999 FEW016CB SCT017 OVC090 26/24 Q1008 RMK A2977 CB E-SE
RPMZ 280900Z 29010KT 260V320 9999 SCT016CB OVC090 26/24 Q1008 RMK A2977 CB ALQDS
RPMZ 280800Z VRB02KT 9000 -RA FEW016CB BKN080 27/25 Q1007 RETS RMK A2974 CB SE W
RPMZ 280700Z VRB02KT 9000 -TSRA SCT016CB BKN090 29/25 Q1007 RMK A2974 CB NE-SE OHD
RPMZ 280600Z 25006KT 210V280 9999 FEW016CB BKN090 29/26 Q1007 RMK A2974 CB NW-SE/S/OHD
RPMZ 280500Z 18006KT 120V220 9999 FEW016CB FEW017 BKN090 31/26 Q1007 RMK A2974 CB NW-NE/S/OHD